sensor_id;sensor_type;location;lat;lon;timestamp;P1;durP1;ratioP1;P2;durP2;ratioP2
7213;SDS011;3648;50.614;13.830;2023-11-21T00:02:17;5.63;;;3.53;;
7213;SDS011;3648;50.614;13.830;2023-11-21T00:04:45;4.80;;;3.23;;
7213;SDS011;3648;50.614;13.830;2023-11-21T00:07:13;5.00;;;3.00;;
7213;SDS011;3648;50.614;13.830;2023-11-21T00:09:40;3.57;;;2.60;;
7213;SDS011;3648;50.614;13.830;2023-11-21T00:12:07;4.37;;;2.50;;
7213;SDS011;3648;50.614;13.830;2023-11-21T00:14:35;3.30;;;2.80;;
7213;SDS011;3648;50.614;13.830;2023-11-21T00:17:03;2.17;;;1.97;;
7213;SDS011;3648;50.614;13.830;2023-11-21T00:19:30;4.80;;;2.40;;
7213;SDS011;3648;50.614;13.830;2023-11-21T00:21:59;2.97;;;2.23;;
7213;SDS011;3648;50.614;13.830;2023-11-21T00:24:26;5.00;;;3.50;;
7213;SDS011;3648;50.614;13.830;2023-11-21T00:26:53;6.70;;;3.67;;
7213;SDS011;3648;50.614;13.830;2023-11-21T00:29:19;3.90;;;2.93;;
7213;SDS011;3648;50.614;13.830;2023-11-21T00:31:46;4.70;;;3.60;;
7213;SDS011;3648;50.614;13.830;2023-11-21T00:34:13;5.27;;;3.27;;
7213;SDS011;3648;50.614;13.830;2023-11-21T00:36:40;4.77;;;3.10;;
7213;SDS011;3648;50.614;13.830;2023-11-21T00:39:08;4.93;;;3.57;;
7213;SDS011;3648;50.614;13.830;2023-11-21T00:41:36;5.43;;;4.07;;
7213;SDS011;3648;50.614;13.830;2023-11-21T00:44:03;5.80;;;3.70;;
7213;SDS011;3648;50.614;13.830;2023-11-21T00:46:31;6.27;;;4.00;;
7213;SDS011;3648;50.614;13.830;2023-11-21T00:48:58;5.27;;;3.90;;
7213;SDS011;3648;50.614;13.830;2023-11-21T00:51:25;8.93;;;4.47;;
7213;SDS011;3648;50.614;13.830;2023-11-21T00:53:52;6.10;;;3.93;;
7213;SDS011;3648;50.614;13.830;2023-11-21T00:56:21;7.27;;;4.17;;
7213;SDS011;3648;50.614;13.830;2023-11-21T00:58:48;4.00;;;3.50;;
7213;SDS011;3648;50.614;13.830;2023-11-21T01:01:17;3.97;;;3.27;;
7213;SDS011;3648;50.614;13.830;2023-11-21T01:03:45;6.63;;;3.40;;
7213;SDS011;3648;50.614;13.830;2023-11-21T01:06:12;5.77;;;3.33;;
7213;SDS011;3648;50.614;13.830;2023-11-21T01:08:39;6.00;;;3.63;;
7213;SDS011;3648;50.614;13.830;2023-11-21T01:11:06;6.57;;;4.03;;
7213;SDS011;3648;50.614;13.830;2023-11-21T01:13:36;6.13;;;3.80;;
7213;SDS011;3648;50.614;13.830;2023-11-21T01:16:04;4.83;;;3.97;;
7213;SDS011;3648;50.614;13.830;2023-11-21T01:18:32;6.30;;;4.50;;
7213;SDS011;3648;50.614;13.830;2023-11-21T01:21:00;8.33;;;5.43;;
7213;SDS011;3648;50.614;13.830;2023-11-21T01:23:27;7.90;;;5.00;;
7213;SDS011;3648;50.614;13.830;2023-11-21T01:25:55;6.57;;;4.77;;
7213;SDS011;3648;50.614;13.830;2023-11-21T01:28:23;5.40;;;4.00;;
7213;SDS011;3648;50.614;13.830;2023-11-21T01:30:52;4.37;;;3.47;;
7213;SDS011;3648;50.614;13.830;2023-11-21T01:33:21;4.97;;;3.70;;
7213;SDS011;3648;50.614;13.830;2023-11-21T01:35:50;5.50;;;3.70;;
7213;SDS011;3648;50.614;13.830;2023-11-21T01:38:18;4.27;;;3.33;;
7213;SDS011;3648;50.614;13.830;2023-11-21T01:40:45;5.33;;;3.27;;
7213;SDS011;3648;50.614;13.830;2023-11-21T01:43:12;4.20;;;3.17;;
7213;SDS011;3648;50.614;13.830;2023-11-21T01:45:39;4.07;;;2.60;;
7213;SDS011;3648;50.614;13.830;2023-11-21T01:48:07;2.97;;;2.00;;
7213;SDS011;3648;50.614;13.830;2023-11-21T01:50:35;3.23;;;2.10;;
7213;SDS011;3648;50.614;13.830;2023-11-21T01:53:02;3.13;;;1.90;;
7213;SDS011;3648;50.614;13.830;2023-11-21T01:55:29;2.23;;;1.80;;
7213;SDS011;3648;50.614;13.830;2023-11-21T01:57:56;3.00;;;1.90;;
7213;SDS011;3648;50.614;13.830;2023-11-21T02:00:24;4.57;;;2.07;;
7213;SDS011;3648;50.614;13.830;2023-11-21T02:02:53;4.00;;;3.07;;
7213;SDS011;3648;50.614;13.830;2023-11-21T02:05:20;5.13;;;3.73;;
7213;SDS011;3648;50.614;13.830;2023-11-21T02:07:47;5.20;;;3.10;;
7213;SDS011;3648;50.614;13.830;2023-11-21T02:10:15;5.53;;;3.07;;
7213;SDS011;3648;50.614;13.830;2023-11-21T02:12:47;3.87;;;2.80;;
7213;SDS011;3648;50.614;13.830;2023-11-21T02:15:15;3.47;;;2.37;;
7213;SDS011;3648;50.614;13.830;2023-11-21T02:17:45;3.70;;;2.27;;
7213;SDS011;3648;50.614;13.830;2023-11-21T02:20:16;4.33;;;2.57;;
7213;SDS011;3648;50.614;13.830;2023-11-21T02:25:22;5.60;;;3.50;;
7213;SDS011;3648;50.614;13.830;2023-11-21T02:27:50;4.73;;;3.50;;
7213;SDS011;3648;50.614;13.830;2023-11-21T02:30:17;6.10;;;3.90;;
7213;SDS011;3648;50.614;13.830;2023-11-21T02:32:44;5.17;;;3.27;;
7213;SDS011;3648;50.614;13.830;2023-11-21T02:35:11;4.60;;;3.33;;
7213;SDS011;3648;50.614;13.830;2023-11-21T02:37:38;3.50;;;2.80;;
7213;SDS011;3648;50.614;13.830;2023-11-21T02:40:08;4.73;;;2.73;;
7213;SDS011;3648;50.614;13.830;2023-11-21T02:42:37;4.90;;;2.77;;
7213;SDS011;3648;50.614;13.830;2023-11-21T02:45:06;4.67;;;2.47;;
7213;SDS011;3648;50.614;13.830;2023-11-21T02:47:33;4.87;;;2.90;;
7213;SDS011;3648;50.614;13.830;2023-11-21T02:50:00;6.40;;;5.17;;
7213;SDS011;3648;50.614;13.830;2023-11-21T02:52:27;11.40;;;8.47;;
7213;SDS011;3648;50.614;13.830;2023-11-21T02:54:54;9.73;;;7.03;;
7213;SDS011;3648;50.614;13.830;2023-11-21T02:57:22;9.37;;;7.03;;
7213;SDS011;3648;50.614;13.830;2023-11-21T02:59:49;9.00;;;5.33;;
7213;SDS011;3648;50.614;13.830;2023-11-21T03:02:16;9.13;;;5.80;;
7213;SDS011;3648;50.614;13.830;2023-11-21T03:04:43;8.33;;;5.23;;
7213;SDS011;3648;50.614;13.830;2023-11-21T03:07:10;6.57;;;4.43;;
7213;SDS011;3648;50.614;13.830;2023-11-21T03:09:37;8.23;;;4.13;;
7213;SDS011;3648;50.614;13.830;2023-11-21T03:12:04;5.60;;;3.60;;
7213;SDS011;3648;50.614;13.830;2023-11-21T03:14:33;5.43;;;3.53;;
7213;SDS011;3648;50.614;13.830;2023-11-21T03:17:00;8.50;;;5.73;;
7213;SDS011;3648;50.614;13.830;2023-11-21T03:19:30;9.93;;;7.23;;
7213;SDS011;3648;50.614;13.830;2023-11-21T03:21:57;8.33;;;5.97;;
7213;SDS011;3648;50.614;13.830;2023-11-21T03:24:24;7.00;;;5.50;;
7213;SDS011;3648;50.614;13.830;2023-11-21T03:26:51;14.20;;;10.20;;
7213;SDS011;3648;50.614;13.830;2023-11-21T03:29:18;20.17;;;13.00;;
7213;SDS011;3648;50.614;13.830;2023-11-21T03:31:47;17.07;;;11.43;;
7213;SDS011;3648;50.614;13.830;2023-11-21T03:34:15;13.30;;;10.40;;
7213;SDS011;3648;50.614;13.830;2023-11-21T03:36:46;12.47;;;8.93;;
7213;SDS011;3648;50.614;13.830;2023-11-21T03:39:13;20.13;;;14.20;;
7213;SDS011;3648;50.614;13.830;2023-11-21T03:41:40;15.17;;;9.40;;
7213;SDS011;3648;50.614;13.830;2023-11-21T03:44:07;13.40;;;7.30;;
7213;SDS011;3648;50.614;13.830;2023-11-21T03:46:34;12.67;;;6.70;;
7213;SDS011;3648;50.614;13.830;2023-11-21T03:49:02;7.83;;;4.67;;
7213;SDS011;3648;50.614;13.830;2023-11-21T03:51:29;8.27;;;5.77;;
7213;SDS011;3648;50.614;13.830;2023-11-21T03:53:56;10.77;;;6.37;;
7213;SDS011;3648;50.614;13.830;2023-11-21T03:56:23;10.63;;;6.30;;
7213;SDS011;3648;50.614;13.830;2023-11-21T03:58:50;9.17;;;5.50;;
7213;SDS011;3648;50.614;13.830;2023-11-21T04:01:20;8.43;;;5.60;;
7213;SDS011;3648;50.614;13.830;2023-11-21T04:03:48;11.73;;;6.97;;
7213;SDS011;3648;50.614;13.830;2023-11-21T04:06:17;11.50;;;7.23;;
7213;SDS011;3648;50.614;13.830;2023-11-21T04:08:44;10.67;;;6.30;;
7213;SDS011;3648;50.614;13.830;2023-11-21T04:11:11;10.70;;;5.20;;
7213;SDS011;3648;50.614;13.830;2023-11-21T04:13:38;9.63;;;5.30;;
7213;SDS011;3648;50.614;13.830;2023-11-21T04:16:07;7.60;;;4.40;;
7213;SDS011;3648;50.614;13.830;2023-11-21T04:18:35;9.43;;;4.40;;
7213;SDS011;3648;50.614;13.830;2023-11-21T04:21:03;15.17;;;8.37;;
7213;SDS011;3648;50.614;13.830;2023-11-21T04:23:31;13.33;;;7.27;;
7213;SDS011;3648;50.614;13.830;2023-11-21T04:25:58;12.30;;;7.10;;
7213;SDS011;3648;50.614;13.830;2023-11-21T04:28:27;10.67;;;6.87;;
7213;SDS011;3648;50.614;13.830;2023-11-21T04:30:54;9.03;;;4.93;;
7213;SDS011;3648;50.614;13.830;2023-11-21T04:33:21;9.53;;;5.83;;
7213;SDS011;3648;50.614;13.830;2023-11-21T04:35:47;8.47;;;4.80;;
7213;SDS011;3648;50.614;13.830;2023-11-21T04:38:14;8.57;;;5.03;;
7213;SDS011;3648;50.614;13.830;2023-11-21T04:40:43;7.00;;;4.63;;
7213;SDS011;3648;50.614;13.830;2023-11-21T04:43:10;5.70;;;3.90;;
7213;SDS011;3648;50.614;13.830;2023-11-21T04:45:37;8.03;;;3.77;;
7213;SDS011;3648;50.614;13.830;2023-11-21T04:48:06;5.20;;;3.60;;
7213;SDS011;3648;50.614;13.830;2023-11-21T04:50:33;4.73;;;3.97;;
7213;SDS011;3648;50.614;13.830;2023-11-21T04:53:00;5.83;;;3.60;;
7213;SDS011;3648;50.614;13.830;2023-11-21T04:55:27;4.93;;;3.40;;
7213;SDS011;3648;50.614;13.830;2023-11-21T04:57:55;5.17;;;3.03;;
7213;SDS011;3648;50.614;13.830;2023-11-21T05:00:22;3.93;;;3.07;;
7213;SDS011;3648;50.614;13.830;2023-11-21T05:02:49;3.77;;;2.40;;
7213;SDS011;3648;50.614;13.830;2023-11-21T05:05:17;7.37;;;3.00;;
7213;SDS011;3648;50.614;13.830;2023-11-21T05:07:44;4.23;;;2.77;;
7213;SDS011;3648;50.614;13.830;2023-11-21T05:10:11;6.90;;;3.80;;
7213;SDS011;3648;50.614;13.830;2023-11-21T05:12:40;6.10;;;3.87;;
7213;SDS011;3648;50.614;13.830;2023-11-21T05:15:09;6.00;;;4.27;;
7213;SDS011;3648;50.614;13.830;2023-11-21T05:17:38;5.70;;;3.80;;
7213;SDS011;3648;50.614;13.830;2023-11-21T05:20:07;8.03;;;5.83;;
7213;SDS011;3648;50.614;13.830;2023-11-21T05:22:36;7.43;;;6.30;;
7213;SDS011;3648;50.614;13.830;2023-11-21T05:25:03;6.57;;;5.47;;
7213;SDS011;3648;50.614;13.830;2023-11-21T05:27:32;7.70;;;5.93;;
7213;SDS011;3648;50.614;13.830;2023-11-21T05:30:00;8.77;;;5.33;;
7213;SDS011;3648;50.614;13.830;2023-11-21T05:32:29;6.87;;;5.07;;
7213;SDS011;3648;50.614;13.830;2023-11-21T05:34:56;8.87;;;4.53;;
7213;SDS011;3648;50.614;13.830;2023-11-21T05:37:23;7.53;;;4.30;;
7213;SDS011;3648;50.614;13.830;2023-11-21T05:39:52;5.60;;;3.80;;
7213;SDS011;3648;50.614;13.830;2023-11-21T05:42:19;4.77;;;3.43;;
7213;SDS011;3648;50.614;13.830;2023-11-21T05:44:46;6.23;;;3.63;;
7213;SDS011;3648;50.614;13.830;2023-11-21T05:47:13;5.37;;;4.10;;
7213;SDS011;3648;50.614;13.830;2023-11-21T05:49:41;4.03;;;2.87;;
7213;SDS011;3648;50.614;13.830;2023-11-21T05:52:10;4.17;;;3.03;;
7213;SDS011;3648;50.614;13.830;2023-11-21T05:54:37;4.20;;;3.13;;
7213;SDS011;3648;50.614;13.830;2023-11-21T05:57:04;5.47;;;2.90;;
7213;SDS011;3648;50.614;13.830;2023-11-21T05:59:31;9.43;;;4.23;;
7213;SDS011;3648;50.614;13.830;2023-11-21T06:01:58;5.23;;;4.00;;
7213;SDS011;3648;50.614;13.830;2023-11-21T06:04:25;5.47;;;3.53;;
7213;SDS011;3648;50.614;13.830;2023-11-21T06:06:53;4.73;;;3.40;;
7213;SDS011;3648;50.614;13.830;2023-11-21T06:09:20;7.87;;;4.03;;
7213;SDS011;3648;50.614;13.830;2023-11-21T06:11:47;4.20;;;2.87;;
7213;SDS011;3648;50.614;13.830;2023-11-21T06:14:14;4.60;;;3.10;;
7213;SDS011;3648;50.614;13.830;2023-11-21T06:16:43;7.03;;;3.57;;
7213;SDS011;3648;50.614;13.830;2023-11-21T06:19:10;3.73;;;3.03;;
7213;SDS011;3648;50.614;13.830;2023-11-21T06:21:37;7.10;;;3.70;;
7213;SDS011;3648;50.614;13.830;2023-11-21T06:24:06;7.43;;;4.27;;
7213;SDS011;3648;50.614;13.830;2023-11-21T06:26:33;7.53;;;3.50;;
7213;SDS011;3648;50.614;13.830;2023-11-21T06:29:00;4.60;;;3.80;;
7213;SDS011;3648;50.614;13.830;2023-11-21T06:31:28;5.43;;;3.60;;
7213;SDS011;3648;50.614;13.830;2023-11-21T06:33:57;5.47;;;3.97;;
7213;SDS011;3648;50.614;13.830;2023-11-21T06:36:26;5.13;;;3.70;;
7213;SDS011;3648;50.614;13.830;2023-11-21T06:38:53;5.53;;;3.97;;
7213;SDS011;3648;50.614;13.830;2023-11-21T06:41:21;5.63;;;4.37;;
7213;SDS011;3648;50.614;13.830;2023-11-21T06:43:48;5.40;;;4.63;;
7213;SDS011;3648;50.614;13.830;2023-11-21T06:46:15;6.23;;;4.30;;
7213;SDS011;3648;50.614;13.830;2023-11-21T06:48:44;5.47;;;4.73;;
7213;SDS011;3648;50.614;13.830;2023-11-21T06:51:11;8.17;;;4.53;;
7213;SDS011;3648;50.614;13.830;2023-11-21T06:53:38;6.87;;;4.80;;
7213;SDS011;3648;50.614;13.830;2023-11-21T06:56:14;8.60;;;4.47;;
7213;SDS011;3648;50.614;13.830;2023-11-21T06:58:43;4.70;;;3.60;;
7213;SDS011;3648;50.614;13.830;2023-11-21T07:01:11;8.80;;;4.20;;
7213;SDS011;3648;50.614;13.830;2023-11-21T07:03:38;9.43;;;5.57;;
7213;SDS011;3648;50.614;13.830;2023-11-21T07:06:06;10.87;;;7.90;;
7213;SDS011;3648;50.614;13.830;2023-11-21T07:08:34;14.90;;;7.40;;
7213;SDS011;3648;50.614;13.830;2023-11-21T07:11:02;17.53;;;6.73;;
7213;SDS011;3648;50.614;13.830;2023-11-21T07:13:29;37.73;;;10.30;;
7213;SDS011;3648;50.614;13.830;2023-11-21T07:15:57;11.83;;;5.60;;
7213;SDS011;3648;50.614;13.830;2023-11-21T07:18:24;25.93;;;9.50;;
7213;SDS011;3648;50.614;13.830;2023-11-21T07:20:51;14.17;;;6.47;;
7213;SDS011;3648;50.614;13.830;2023-11-21T07:23:18;8.23;;;5.80;;
7213;SDS011;3648;50.614;13.830;2023-11-21T07:25:47;12.60;;;7.80;;
7213;SDS011;3648;50.614;13.830;2023-11-21T07:28:14;8.47;;;6.57;;
7213;SDS011;3648;50.614;13.830;2023-11-21T07:30:41;19.93;;;7.00;;
7213;SDS011;3648;50.614;13.830;2023-11-21T07:33:10;11.33;;;7.40;;
7213;SDS011;3648;50.614;13.830;2023-11-21T07:35:37;16.10;;;7.93;;
7213;SDS011;3648;50.614;13.830;2023-11-21T07:38:04;14.30;;;10.07;;
7213;SDS011;3648;50.614;13.830;2023-11-21T07:40:31;15.33;;;8.20;;
7213;SDS011;3648;50.614;13.830;2023-11-21T07:42:58;20.57;;;6.93;;
7213;SDS011;3648;50.614;13.830;2023-11-21T07:45:25;9.33;;;5.93;;
7213;SDS011;3648;50.614;13.830;2023-11-21T07:47:53;8.03;;;5.83;;
7213;SDS011;3648;50.614;13.830;2023-11-21T07:50:22;9.50;;;5.23;;
7213;SDS011;3648;50.614;13.830;2023-11-21T07:52:49;6.33;;;5.17;;
7213;SDS011;3648;50.614;13.830;2023-11-21T07:55:16;7.53;;;5.23;;
7213;SDS011;3648;50.614;13.830;2023-11-21T07:57:43;6.57;;;4.77;;
7213;SDS011;3648;50.614;13.830;2023-11-21T08:00:10;6.97;;;4.30;;
7213;SDS011;3648;50.614;13.830;2023-11-21T08:02:40;7.30;;;4.77;;
7213;SDS011;3648;50.614;13.830;2023-11-21T08:05:10;5.07;;;4.57;;
7213;SDS011;3648;50.614;13.830;2023-11-21T08:07:39;10.70;;;5.67;;
7213;SDS011;3648;50.614;13.830;2023-11-21T08:10:07;9.10;;;5.90;;
7213;SDS011;3648;50.614;13.830;2023-11-21T08:12:36;7.13;;;4.97;;
7213;SDS011;3648;50.614;13.830;2023-11-21T08:15:04;7.47;;;5.07;;
7213;SDS011;3648;50.614;13.830;2023-11-21T08:17:32;7.90;;;4.83;;
7213;SDS011;3648;50.614;13.830;2023-11-21T08:20:00;7.33;;;5.50;;
7213;SDS011;3648;50.614;13.830;2023-11-21T08:22:28;6.83;;;5.00;;
7213;SDS011;3648;50.614;13.830;2023-11-21T08:24:57;5.83;;;5.23;;
7213;SDS011;3648;50.614;13.830;2023-11-21T08:27:24;12.57;;;5.63;;
7213;SDS011;3648;50.614;13.830;2023-11-21T08:29:51;13.20;;;10.03;;
7213;SDS011;3648;50.614;13.830;2023-11-21T08:32:18;12.50;;;9.70;;
7213;SDS011;3648;50.614;13.830;2023-11-21T08:34:45;11.00;;;6.80;;
7213;SDS011;3648;50.614;13.830;2023-11-21T08:37:15;7.90;;;6.37;;
7213;SDS011;3648;50.614;13.830;2023-11-21T08:39:43;9.40;;;6.43;;
7213;SDS011;3648;50.614;13.830;2023-11-21T08:42:11;9.63;;;7.30;;
7213;SDS011;3648;50.614;13.830;2023-11-21T08:44:38;9.20;;;6.00;;
7213;SDS011;3648;50.614;13.830;2023-11-21T08:47:05;9.03;;;5.73;;
7213;SDS011;3648;50.614;13.830;2023-11-21T08:49:34;7.43;;;5.37;;
7213;SDS011;3648;50.614;13.830;2023-11-21T08:52:04;9.03;;;5.47;;
7213;SDS011;3648;50.614;13.830;2023-11-21T08:54:31;8.47;;;5.80;;
7213;SDS011;3648;50.614;13.830;2023-11-21T08:56:59;9.47;;;7.17;;
7213;SDS011;3648;50.614;13.830;2023-11-21T08:59:27;17.67;;;8.83;;
7213;SDS011;3648;50.614;13.830;2023-11-21T09:01:54;7.03;;;5.63;;
7213;SDS011;3648;50.614;13.830;2023-11-21T09:04:21;7.07;;;5.53;;
7213;SDS011;3648;50.614;13.830;2023-11-21T09:06:48;7.13;;;5.67;;
7213;SDS011;3648;50.614;13.830;2023-11-21T09:09:15;8.80;;;5.47;;
7213;SDS011;3648;50.614;13.830;2023-11-21T09:11:42;6.60;;;5.67;;
7213;SDS011;3648;50.614;13.830;2023-11-21T09:14:10;7.80;;;6.30;;
7213;SDS011;3648;50.614;13.830;2023-11-21T09:16:39;8.10;;;6.60;;
7213;SDS011;3648;50.614;13.830;2023-11-21T09:19:06;10.73;;;8.10;;
7213;SDS011;3648;50.614;13.830;2023-11-21T09:21:33;12.23;;;8.17;;
7213;SDS011;3648;50.614;13.830;2023-11-21T09:24:01;10.40;;;7.23;;
7213;SDS011;3648;50.614;13.830;2023-11-21T09:26:28;7.70;;;6.43;;
7213;SDS011;3648;50.614;13.830;2023-11-21T09:28:55;8.23;;;5.90;;
7213;SDS011;3648;50.614;13.830;2023-11-21T09:31:22;10.23;;;6.40;;
7213;SDS011;3648;50.614;13.830;2023-11-21T09:33:50;8.03;;;5.70;;
7213;SDS011;3648;50.614;13.830;2023-11-21T09:36:18;7.63;;;5.97;;
7213;SDS011;3648;50.614;13.830;2023-11-21T09:38:47;8.63;;;5.30;;
7213;SDS011;3648;50.614;13.830;2023-11-21T09:41:15;10.00;;;6.40;;
7213;SDS011;3648;50.614;13.830;2023-11-21T09:43:47;12.63;;;6.20;;
7213;SDS011;3648;50.614;13.830;2023-11-21T09:46:18;11.60;;;7.60;;
7213;SDS011;3648;50.614;13.830;2023-11-21T09:48:49;9.67;;;6.80;;
7213;SDS011;3648;50.614;13.830;2023-11-21T09:51:19;12.30;;;7.63;;
7213;SDS011;3648;50.614;13.830;2023-11-21T09:53:48;9.70;;;7.43;;
7213;SDS011;3648;50.614;13.830;2023-11-21T09:56:18;7.93;;;5.97;;
7213;SDS011;3648;50.614;13.830;2023-11-21T09:58:50;9.80;;;5.93;;
7213;SDS011;3648;50.614;13.830;2023-11-21T10:01:18;10.83;;;6.13;;
7213;SDS011;3648;50.614;13.830;2023-11-21T10:03:47;8.33;;;6.10;;
7213;SDS011;3648;50.614;13.830;2023-11-21T10:06:16;11.47;;;6.50;;
7213;SDS011;3648;50.614;13.830;2023-11-21T10:08:45;7.90;;;6.10;;
7213;SDS011;3648;50.614;13.830;2023-11-21T10:11:14;6.43;;;5.73;;
7213;SDS011;3648;50.614;13.830;2023-11-21T10:13:41;9.70;;;5.50;;
7213;SDS011;3648;50.614;13.830;2023-11-21T10:16:10;8.10;;;5.70;;
7213;SDS011;3648;50.614;13.830;2023-11-21T10:18:42;8.87;;;5.03;;
7213;SDS011;3648;50.614;13.830;2023-11-21T10:21:11;7.73;;;4.83;;
7213;SDS011;3648;50.614;13.830;2023-11-21T10:23:39;11.87;;;8.70;;
7213;SDS011;3648;50.614;13.830;2023-11-21T10:26:06;9.90;;;7.67;;
7213;SDS011;3648;50.614;13.830;2023-11-21T10:28:41;9.27;;;6.93;;
7213;SDS011;3648;50.614;13.830;2023-11-21T10:31:08;9.27;;;5.57;;
7213;SDS011;3648;50.614;13.830;2023-11-21T10:33:35;7.00;;;5.97;;
7213;SDS011;3648;50.614;13.830;2023-11-21T10:36:02;8.17;;;5.13;;
7213;SDS011;3648;50.614;13.830;2023-11-21T10:38:32;6.07;;;5.03;;
7213;SDS011;3648;50.614;13.830;2023-11-21T10:41:11;7.57;;;5.30;;
7213;SDS011;3648;50.614;13.830;2023-11-21T10:43:40;7.10;;;4.80;;
7213;SDS011;3648;50.614;13.830;2023-11-21T10:46:07;7.73;;;4.73;;
7213;SDS011;3648;50.614;13.830;2023-11-21T10:48:34;7.27;;;4.60;;
7213;SDS011;3648;50.614;13.830;2023-11-21T10:51:06;6.03;;;4.77;;
7213;SDS011;3648;50.614;13.830;2023-11-21T10:53:38;7.43;;;5.30;;
7213;SDS011;3648;50.614;13.830;2023-11-21T10:56:06;6.70;;;4.97;;
7213;SDS011;3648;50.614;13.830;2023-11-21T10:58:38;6.37;;;5.03;;
7213;SDS011;3648;50.614;13.830;2023-11-21T11:01:05;5.83;;;3.70;;
7213;SDS011;3648;50.614;13.830;2023-11-21T11:03:33;5.57;;;3.70;;
7213;SDS011;3648;50.614;13.830;2023-11-21T11:06:03;4.30;;;3.80;;
7213;SDS011;3648;50.614;13.830;2023-11-21T11:08:36;5.37;;;4.00;;
7213;SDS011;3648;50.614;13.830;2023-11-21T11:11:03;5.40;;;4.63;;
7213;SDS011;3648;50.614;13.830;2023-11-21T11:13:31;6.17;;;4.57;;
7213;SDS011;3648;50.614;13.830;2023-11-21T11:16:00;4.80;;;3.50;;
7213;SDS011;3648;50.614;13.830;2023-11-21T11:18:27;4.77;;;3.20;;
7213;SDS011;3648;50.614;13.830;2023-11-21T11:20:56;2.53;;;2.30;;
7213;SDS011;3648;50.614;13.830;2023-11-21T11:23:37;3.87;;;2.70;;
7213;SDS011;3648;50.614;13.830;2023-11-21T11:26:19;2.40;;;2.20;;
7213;SDS011;3648;50.614;13.830;2023-11-21T11:28:55;3.57;;;1.57;;
7213;SDS011;3648;50.614;13.830;2023-11-21T11:31:36;3.20;;;2.40;;
7213;SDS011;3648;50.614;13.830;2023-11-21T11:34:14;3.53;;;2.40;;
7213;SDS011;3648;50.614;13.830;2023-11-21T11:36:51;2.90;;;2.53;;
7213;SDS011;3648;50.614;13.830;2023-11-21T11:39:28;3.23;;;2.70;;
7213;SDS011;3648;50.614;13.830;2023-11-21T11:41:56;4.20;;;2.90;;
7213;SDS011;3648;50.614;13.830;2023-11-21T11:47:19;3.00;;;2.70;;
7213;SDS011;3648;50.614;13.830;2023-11-21T11:49:57;5.17;;;2.50;;
7213;SDS011;3648;50.614;13.830;2023-11-21T11:52:32;4.00;;;2.90;;
7213;SDS011;3648;50.614;13.830;2023-11-21T11:55:00;4.10;;;3.40;;
7213;SDS011;3648;50.614;13.830;2023-11-21T11:57:29;3.77;;;3.07;;
7213;SDS011;3648;50.614;13.830;2023-11-21T12:00:07;6.50;;;2.80;;
7213;SDS011;3648;50.614;13.830;2023-11-21T12:02:38;3.63;;;3.33;;
7213;SDS011;3648;50.614;13.830;2023-11-21T12:05:09;3.13;;;2.40;;
7213;SDS011;3648;50.614;13.830;2023-11-21T12:07:44;3.17;;;2.17;;
7213;SDS011;3648;50.614;13.830;2023-11-21T12:10:13;3.17;;;1.80;;
7213;SDS011;3648;50.614;13.830;2023-11-21T12:12:43;3.33;;;1.80;;
7213;SDS011;3648;50.614;13.830;2023-11-21T12:15:11;2.00;;;1.50;;
7213;SDS011;3648;50.614;13.830;2023-11-21T12:17:41;2.30;;;1.50;;
7213;SDS011;3648;50.614;13.830;2023-11-21T12:20:09;2.90;;;1.33;;
7213;SDS011;3648;50.614;13.830;2023-11-21T12:22:44;1.53;;;1.10;;
7213;SDS011;3648;50.614;13.830;2023-11-21T12:25:14;1.40;;;1.10;;
7213;SDS011;3648;50.614;13.830;2023-11-21T12:27:43;1.17;;;0.90;;
7213;SDS011;3648;50.614;13.830;2023-11-21T12:30:12;0.80;;;0.80;;
7213;SDS011;3648;50.614;13.830;2023-11-21T12:32:42;2.20;;;0.80;;
7213;SDS011;3648;50.614;13.830;2023-11-21T12:35:11;0.67;;;0.63;;
7213;SDS011;3648;50.614;13.830;2023-11-21T12:37:38;1.47;;;0.73;;
7213;SDS011;3648;50.614;13.830;2023-11-21T12:40:08;0.90;;;0.70;;
7213;SDS011;3648;50.614;13.830;2023-11-21T12:42:37;0.80;;;0.80;;
7213;SDS011;3648;50.614;13.830;2023-11-21T12:45:09;0.50;;;0.50;;
7213;SDS011;3648;50.614;13.830;2023-11-21T12:47:46;0.70;;;0.60;;
7213;SDS011;3648;50.614;13.830;2023-11-21T12:50:15;0.83;;;0.50;;
7213;SDS011;3648;50.614;13.830;2023-11-21T12:52:48;0.97;;;0.60;;
7213;SDS011;3648;50.614;13.830;2023-11-21T12:55:17;0.63;;;0.53;;
7213;SDS011;3648;50.614;13.830;2023-11-21T12:57:47;0.63;;;0.47;;
7213;SDS011;3648;50.614;13.830;2023-11-21T13:00:16;0.40;;;0.40;;
7213;SDS011;3648;50.614;13.830;2023-11-21T13:02:54;0.70;;;0.70;;
7213;SDS011;3648;50.614;13.830;2023-11-21T13:05:24;0.63;;;0.63;;
7213;SDS011;3648;50.614;13.830;2023-11-21T13:07:51;1.77;;;0.60;;
7213;SDS011;3648;50.614;13.830;2023-11-21T13:10:19;0.80;;;0.60;;
7213;SDS011;3648;50.614;13.830;2023-11-21T13:12:51;0.70;;;0.70;;
7213;SDS011;3648;50.614;13.830;2023-11-21T13:15:19;0.40;;;0.40;;
7213;SDS011;3648;50.614;13.830;2023-11-21T13:17:46;0.73;;;0.60;;
7213;SDS011;3648;50.614;13.830;2023-11-21T13:20:16;0.93;;;0.77;;
7213;SDS011;3648;50.614;13.830;2023-11-21T13:22:48;0.93;;;0.60;;
7213;SDS011;3648;50.614;13.830;2023-11-21T13:25:16;1.17;;;0.70;;
7213;SDS011;3648;50.614;13.830;2023-11-21T13:27:44;1.43;;;0.83;;
7213;SDS011;3648;50.614;13.830;2023-11-21T13:30:12;0.80;;;0.80;;
7213;SDS011;3648;50.614;13.830;2023-11-21T13:32:44;0.77;;;0.77;;
7213;SDS011;3648;50.614;13.830;2023-11-21T13:35:12;1.77;;;0.70;;
7213;SDS011;3648;50.614;13.830;2023-11-21T13:37:50;1.23;;;0.90;;
7213;SDS011;3648;50.614;13.830;2023-11-21T13:40:20;1.23;;;1.13;;
7213;SDS011;3648;50.614;13.830;2023-11-21T13:42:52;2.20;;;1.13;;
7213;SDS011;3648;50.614;13.830;2023-11-21T13:45:20;1.20;;;1.10;;
7213;SDS011;3648;50.614;13.830;2023-11-21T13:47:49;0.93;;;0.90;;
7213;SDS011;3648;50.614;13.830;2023-11-21T13:50:22;1.13;;;1.00;;
7213;SDS011;3648;50.614;13.830;2023-11-21T13:52:55;1.47;;;1.30;;
7213;SDS011;3648;50.614;13.830;2023-11-21T13:55:23;1.30;;;1.20;;
7213;SDS011;3648;50.614;13.830;2023-11-21T13:57:51;1.70;;;1.60;;
7213;SDS011;3648;50.614;13.830;2023-11-21T14:00:18;1.33;;;1.03;;
7213;SDS011;3648;50.614;13.830;2023-11-21T14:03:03;2.53;;;1.77;;
7213;SDS011;3648;50.614;13.830;2023-11-21T14:05:35;1.90;;;1.50;;
7213;SDS011;3648;50.614;13.830;2023-11-21T14:08:04;3.23;;;2.03;;
7213;SDS011;3648;50.614;13.830;2023-11-21T14:10:31;2.30;;;2.10;;
7213;SDS011;3648;50.614;13.830;2023-11-21T14:13:05;2.10;;;1.77;;
7213;SDS011;3648;50.614;13.830;2023-11-21T14:15:32;2.60;;;1.90;;
7213;SDS011;3648;50.614;13.830;2023-11-21T14:18:03;2.13;;;1.93;;
7213;SDS011;3648;50.614;13.830;2023-11-21T14:20:32;1.93;;;1.63;;
7213;SDS011;3648;50.614;13.830;2023-11-21T14:23:01;1.60;;;1.50;;
7213;SDS011;3648;50.614;13.830;2023-11-21T14:25:29;1.67;;;1.27;;
7213;SDS011;3648;50.614;13.830;2023-11-21T14:27:57;1.60;;;1.30;;
7213;SDS011;3648;50.614;13.830;2023-11-21T14:30:24;1.30;;;1.10;;
7213;SDS011;3648;50.614;13.830;2023-11-21T14:32:52;1.63;;;1.33;;
7213;SDS011;3648;50.614;13.830;2023-11-21T14:35:19;0.93;;;0.93;;
7213;SDS011;3648;50.614;13.830;2023-11-21T14:37:46;2.10;;;1.07;;
7213;SDS011;3648;50.614;13.830;2023-11-21T14:40:13;1.10;;;0.90;;
7213;SDS011;3648;50.614;13.830;2023-11-21T14:42:44;0.83;;;0.80;;
7213;SDS011;3648;50.614;13.830;2023-11-21T14:45:14;0.87;;;0.80;;
7213;SDS011;3648;50.614;13.830;2023-11-21T14:47:45;1.00;;;0.90;;
7213;SDS011;3648;50.614;13.830;2023-11-21T14:50:19;2.27;;;1.40;;
7213;SDS011;3648;50.614;13.830;2023-11-21T14:53:00;2.80;;;1.60;;
7213;SDS011;3648;50.614;13.830;2023-11-21T14:55:31;1.47;;;1.10;;
7213;SDS011;3648;50.614;13.830;2023-11-21T14:58:05;1.37;;;1.10;;
7213;SDS011;3648;50.614;13.830;2023-11-21T15:00:37;1.07;;;0.97;;
7213;SDS011;3648;50.614;13.830;2023-11-21T15:03:09;0.87;;;0.87;;
7213;SDS011;3648;50.614;13.830;2023-11-21T15:05:51;1.10;;;0.90;;
7213;SDS011;3648;50.614;13.830;2023-11-21T15:08:18;1.13;;;1.03;;
7213;SDS011;3648;50.614;13.830;2023-11-21T15:10:51;0.80;;;0.70;;
7213;SDS011;3648;50.614;13.830;2023-11-21T15:13:20;1.90;;;0.80;;
7213;SDS011;3648;50.614;13.830;2023-11-21T15:15:49;0.80;;;0.80;;